Bluefields Airport
MNBL : rendu visible

Aérodrome :











RETROUVEZ-NOUS SUR...

 
LOGIN :

S'inscrire | Disclaimer

   EN    FR    IT 

 









Légende :    VFR   VFR Marginal   IFR   IFR Intensif   IFR Très Intensif
Visi : 
Plafond : 
>= 8 km
>= 3000ft
5 à 8 km
1000 à 3000 ft
1500m à 5 km
500 à 1000 ft
800 à 1500m
200 à 500 ft
< 800m
< 200 ft
Symboles :   Orages  Brouillard  Fortes neiges  Fortes précipitations  Vent > 20 kt






- Altitude de l'aérodrome : 20 ft
- Code IATA : BEF


MNBL - Bluefields

DERNIER METAR :
  • 132100Z 10004KT 8000 VCRA SCT017 BKN070 30/26 Q1011 RA/S/SW

METARs EXPIRÉS :
  • 132000Z 10004KT 8000 VCRA BKN017 SCT070 29/25 Q1012 RA/E/SE/S
  • 131900Z 07006KT 9999 BKN017 SCT070 29/25 Q1013

TAF TAF MNBL
Valide du 13 à 18h jusqu'au 14 à 18h UTC


131600Z 1318/1418 09008G20KT 3000 DZ/TSRA SCT016CB SCT070
BECMG 1400/1403 07006KT 6000 VCRA/DZ FEW018TCU SCT080
TEMPO 1406/1411 36004KT 3000 -TSRA SCT016CB SCT070
FM141500 07008KT 5000 DZ SCT017CB SCT080
FIR MHTG / Amérique du Nord



MET'MAP, la Météo Aéronautique d'un coup d'oeil ! - Copyright ORBIFLY Décembre 2007 - Disclaimer

ORBIFLY MET'MAP TEAM :

Programmation & Développement : Alexandra Zaïnal
Sur une idée originale de : Baudouin d'Aumeries
Assistance à la programmation : Marc-Olivier Méhu
Soutien technique & logistique : Manuel Goepfert

Contact : metmap@orbifly.com




SOURCES & CREDITS :

   NOAA       Earth
Advisory